sensor_id;sensor_type;location;lat;lon;timestamp;temperature;humidity
21104;DHT22;10710;53.398;-1.514;2024-01-30T00:00:04;12.90;99.90
21104;DHT22;10710;53.398;-1.514;2024-01-30T00:02:50;12.90;99.90
21104;DHT22;10710;53.398;-1.514;2024-01-30T00:05:34;12.90;99.90
21104;DHT22;10710;53.398;-1.514;2024-01-30T00:08:19;13.00;99.90
21104;DHT22;10710;53.398;-1.514;2024-01-30T00:11:04;12.90;99.90
21104;DHT22;10710;53.398;-1.514;2024-01-30T00:13:48;12.90;99.90
21104;DHT22;10710;53.398;-1.514;2024-01-30T00:16:32;12.90;99.90
21104;DHT22;10710;53.398;-1.514;2024-01-30T00:19:16;13.00;99.90
21104;DHT22;10710;53.398;-1.514;2024-01-30T00:22:01;13.00;99.90
21104;DHT22;10710;53.398;-1.514;2024-01-30T00:24:45;13.00;99.90
21104;DHT22;10710;53.398;-1.514;2024-01-30T00:27:29;12.90;99.90
21104;DHT22;10710;53.398;-1.514;2024-01-30T00:30:14;12.90;99.90
21104;DHT22;10710;53.398;-1.514;2024-01-30T00:32:58;12.90;99.90
21104;DHT22;10710;53.398;-1.514;2024-01-30T00:35:42;12.80;99.90
21104;DHT22;10710;53.398;-1.514;2024-01-30T00:38:26;12.90;99.90
21104;DHT22;10710;53.398;-1.514;2024-01-30T00:41:10;12.90;99.90
21104;DHT22;10710;53.398;-1.514;2024-01-30T00:43:54;12.90;99.90
21104;DHT22;10710;53.398;-1.514;2024-01-30T00:46:39;12.90;99.90
21104;DHT22;10710;53.398;-1.514;2024-01-30T00:49:23;12.90;99.90
21104;DHT22;10710;53.398;-1.514;2024-01-30T00:52:07;13.00;99.90
21104;DHT22;10710;53.398;-1.514;2024-01-30T00:54:51;13.00;99.90
21104;DHT22;10710;53.398;-1.514;2024-01-30T00:57:35;13.10;99.90
21104;DHT22;10710;53.398;-1.514;2024-01-30T01:00:19;13.00;99.90
21104;DHT22;10710;53.398;-1.514;2024-01-30T01:03:05;13.00;99.90
21104;DHT22;10710;53.398;-1.514;2024-01-30T01:05:49;13.00;99.90
21104;DHT22;10710;53.398;-1.514;2024-01-30T01:08:34;13.00;99.90
21104;DHT22;10710;53.398;-1.514;2024-01-30T01:11:18;13.00;99.90
21104;DHT22;10710;53.398;-1.514;2024-01-30T01:14:02;13.00;99.90
21104;DHT22;10710;53.398;-1.514;2024-01-30T01:16:47;13.10;99.90
21104;DHT22;10710;53.398;-1.514;2024-01-30T01:19:31;13.10;99.90
21104;DHT22;10710;53.398;-1.514;2024-01-30T01:22:16;13.00;99.90
21104;DHT22;10710;53.398;-1.514;2024-01-30T01:25:01;13.00;99.90
21104;DHT22;10710;53.398;-1.514;2024-01-30T01:27:45;13.00;99.90
21104;DHT22;10710;53.398;-1.514;2024-01-30T01:30:35;13.00;99.90
21104;DHT22;10710;53.398;-1.514;2024-01-30T01:33:19;13.00;99.90
21104;DHT22;10710;53.398;-1.514;2024-01-30T01:36:04;12.90;99.90
21104;DHT22;10710;53.398;-1.514;2024-01-30T01:38:49;12.90;99.90
21104;DHT22;10710;53.398;-1.514;2024-01-30T01:41:33;12.90;99.90
21104;DHT22;10710;53.398;-1.514;2024-01-30T01:44:18;12.90;99.90
21104;DHT22;10710;53.398;-1.514;2024-01-30T01:47:03;12.70;99.90
21104;DHT22;10710;53.398;-1.514;2024-01-30T01:49:47;12.80;99.90
21104;DHT22;10710;53.398;-1.514;2024-01-30T01:52:32;12.90;99.90
21104;DHT22;10710;53.398;-1.514;2024-01-30T01:55:19;12.90;99.90
21104;DHT22;10710;53.398;-1.514;2024-01-30T01:58:05;12.90;99.90
21104;DHT22;10710;53.398;-1.514;2024-01-30T02:00:50;12.80;99.90
21104;DHT22;10710;53.398;-1.514;2024-01-30T02:03:35;12.90;99.90
21104;DHT22;10710;53.398;-1.514;2024-01-30T02:06:20;12.90;99.90
21104;DHT22;10710;53.398;-1.514;2024-01-30T02:09:04;12.90;99.90
21104;DHT22;10710;53.398;-1.514;2024-01-30T02:11:50;13.00;99.90
21104;DHT22;10710;53.398;-1.514;2024-01-30T02:14:47;13.00;99.90
21104;DHT22;10710;53.398;-1.514;2024-01-30T02:17:31;13.00;99.90
21104;DHT22;10710;53.398;-1.514;2024-01-30T02:20:15;12.90;99.90
21104;DHT22;10710;53.398;-1.514;2024-01-30T02:23:01;12.80;99.90
21104;DHT22;10710;53.398;-1.514;2024-01-30T02:25:46;12.50;99.90
21104;DHT22;10710;53.398;-1.514;2024-01-30T02:28:30;12.40;99.90
21104;DHT22;10710;53.398;-1.514;2024-01-30T02:31:15;12.30;99.90
21104;DHT22;10710;53.398;-1.514;2024-01-30T02:34:00;12.20;99.90
21104;DHT22;10710;53.398;-1.514;2024-01-30T02:36:44;12.00;99.90
21104;DHT22;10710;53.398;-1.514;2024-01-30T02:39:28;11.80;99.90
21104;DHT22;10710;53.398;-1.514;2024-01-30T02:42:13;11.60;99.90
21104;DHT22;10710;53.398;-1.514;2024-01-30T02:44:57;11.40;99.90
21104;DHT22;10710;53.398;-1.514;2024-01-30T02:47:42;11.40;99.90
21104;DHT22;10710;53.398;-1.514;2024-01-30T02:50:26;11.20;99.90
21104;DHT22;10710;53.398;-1.514;2024-01-30T02:53:11;11.20;99.90
21104;DHT22;10710;53.398;-1.514;2024-01-30T02:55:55;11.10;99.90
21104;DHT22;10710;53.398;-1.514;2024-01-30T02:58:40;11.20;99.90
21104;DHT22;10710;53.398;-1.514;2024-01-30T03:01:24;11.10;99.90
21104;DHT22;10710;53.398;-1.514;2024-01-30T03:04:09;11.20;99.90
21104;DHT22;10710;53.398;-1.514;2024-01-30T03:06:54;11.10;99.90
21104;DHT22;10710;53.398;-1.514;2024-01-30T03:09:38;11.00;99.90
21104;DHT22;10710;53.398;-1.514;2024-01-30T03:12:22;11.10;99.90
21104;DHT22;10710;53.398;-1.514;2024-01-30T03:15:07;11.10;99.90
21104;DHT22;10710;53.398;-1.514;2024-01-30T03:17:51;11.10;99.90
21104;DHT22;10710;53.398;-1.514;2024-01-30T03:20:35;11.00;99.90
21104;DHT22;10710;53.398;-1.514;2024-01-30T03:23:20;11.00;99.90
21104;DHT22;10710;53.398;-1.514;2024-01-30T03:26:04;11.00;99.90
21104;DHT22;10710;53.398;-1.514;2024-01-30T03:28:50;10.90;99.90
21104;DHT22;10710;53.398;-1.514;2024-01-30T03:31:35;10.90;99.90
21104;DHT22;10710;53.398;-1.514;2024-01-30T03:34:19;10.80;99.90
21104;DHT22;10710;53.398;-1.514;2024-01-30T03:37:03;10.80;99.90
21104;DHT22;10710;53.398;-1.514;2024-01-30T03:39:47;10.80;99.90
21104;DHT22;10710;53.398;-1.514;2024-01-30T03:42:31;10.80;99.90
21104;DHT22;10710;53.398;-1.514;2024-01-30T03:45:16;10.70;99.90
21104;DHT22;10710;53.398;-1.514;2024-01-30T03:48:03;10.60;99.90
21104;DHT22;10710;53.398;-1.514;2024-01-30T03:50:48;10.50;99.90
21104;DHT22;10710;53.398;-1.514;2024-01-30T03:53:32;10.50;99.90
21104;DHT22;10710;53.398;-1.514;2024-01-30T03:56:17;10.50;99.90
21104;DHT22;10710;53.398;-1.514;2024-01-30T03:59:01;10.60;99.90
21104;DHT22;10710;53.398;-1.514;2024-01-30T04:01:47;10.70;99.90
21104;DHT22;10710;53.398;-1.514;2024-01-30T04:04:31;10.70;99.90
21104;DHT22;10710;53.398;-1.514;2024-01-30T04:07:15;10.80;99.90
21104;DHT22;10710;53.398;-1.514;2024-01-30T04:09:59;11.00;99.90
21104;DHT22;10710;53.398;-1.514;2024-01-30T04:12:44;11.00;99.90
21104;DHT22;10710;53.398;-1.514;2024-01-30T04:15:28;10.90;99.90
21104;DHT22;10710;53.398;-1.514;2024-01-30T04:18:13;10.80;99.90
21104;DHT22;10710;53.398;-1.514;2024-01-30T04:20:57;10.50;99.90
21104;DHT22;10710;53.398;-1.514;2024-01-30T04:23:41;10.40;99.90
21104;DHT22;10710;53.398;-1.514;2024-01-30T04:26:26;10.40;99.90
21104;DHT22;10710;53.398;-1.514;2024-01-30T04:29:11;10.30;99.90
21104;DHT22;10710;53.398;-1.514;2024-01-30T04:31:55;10.20;99.90
21104;DHT22;10710;53.398;-1.514;2024-01-30T04:34:39;10.10;99.90
21104;DHT22;10710;53.398;-1.514;2024-01-30T04:37:24;10.00;99.90
21104;DHT22;10710;53.398;-1.514;2024-01-30T04:40:09;9.90;99.90
21104;DHT22;10710;53.398;-1.514;2024-01-30T04:42:54;9.90;99.90
21104;DHT22;10710;53.398;-1.514;2024-01-30T04:45:38;9.70;99.90
21104;DHT22;10710;53.398;-1.514;2024-01-30T04:48:23;9.60;99.90
21104;DHT22;10710;53.398;-1.514;2024-01-30T04:51:07;9.60;99.90
21104;DHT22;10710;53.398;-1.514;2024-01-30T04:53:52;9.50;99.90
21104;DHT22;10710;53.398;-1.514;2024-01-30T04:56:36;9.50;99.90
21104;DHT22;10710;53.398;-1.514;2024-01-30T04:59:20;9.50;99.90
21104;DHT22;10710;53.398;-1.514;2024-01-30T05:02:04;9.60;99.90
21104;DHT22;10710;53.398;-1.514;2024-01-30T05:04:49;9.80;99.90
21104;DHT22;10710;53.398;-1.514;2024-01-30T05:07:34;9.80;99.90
21104;DHT22;10710;53.398;-1.514;2024-01-30T05:10:18;9.80;99.90
21104;DHT22;10710;53.398;-1.514;2024-01-30T05:13:03;9.90;99.90
21104;DHT22;10710;53.398;-1.514;2024-01-30T05:15:47;9.90;99.90
21104;DHT22;10710;53.398;-1.514;2024-01-30T05:18:31;9.90;99.90
21104;DHT22;10710;53.398;-1.514;2024-01-30T05:21:15;9.80;99.90
21104;DHT22;10710;53.398;-1.514;2024-01-30T05:24:00;9.70;99.90
21104;DHT22;10710;53.398;-1.514;2024-01-30T05:26:44;9.70;99.90
21104;DHT22;10710;53.398;-1.514;2024-01-30T05:29:29;9.80;99.90
21104;DHT22;10710;53.398;-1.514;2024-01-30T05:32:13;9.80;99.90
21104;DHT22;10710;53.398;-1.514;2024-01-30T05:34:58;9.70;99.90
21104;DHT22;10710;53.398;-1.514;2024-01-30T05:37:42;9.70;99.90
21104;DHT22;10710;53.398;-1.514;2024-01-30T05:40:26;9.70;99.90
21104;DHT22;10710;53.398;-1.514;2024-01-30T05:43:11;9.80;99.90
21104;DHT22;10710;53.398;-1.514;2024-01-30T05:45:56;9.80;99.90
21104;DHT22;10710;53.398;-1.514;2024-01-30T05:48:40;9.90;99.90
21104;DHT22;10710;53.398;-1.514;2024-01-30T05:51:24;9.90;99.90
21104;DHT22;10710;53.398;-1.514;2024-01-30T05:54:08;9.90;99.90
21104;DHT22;10710;53.398;-1.514;2024-01-30T05:56:52;9.90;99.90
21104;DHT22;10710;53.398;-1.514;2024-01-30T05:59:37;9.70;99.90
21104;DHT22;10710;53.398;-1.514;2024-01-30T06:02:22;9.70;99.90
21104;DHT22;10710;53.398;-1.514;2024-01-30T06:05:06;9.70;99.90
21104;DHT22;10710;53.398;-1.514;2024-01-30T06:07:50;9.60;99.90
21104;DHT22;10710;53.398;-1.514;2024-01-30T06:10:35;9.50;99.90
21104;DHT22;10710;53.398;-1.514;2024-01-30T06:13:19;9.20;99.90
21104;DHT22;10710;53.398;-1.514;2024-01-30T06:16:04;9.00;99.90
21104;DHT22;10710;53.398;-1.514;2024-01-30T06:18:48;8.90;99.90
21104;DHT22;10710;53.398;-1.514;2024-01-30T06:21:33;9.00;99.90
21104;DHT22;10710;53.398;-1.514;2024-01-30T06:24:20;9.00;99.90
21104;DHT22;10710;53.398;-1.514;2024-01-30T06:27:05;8.90;99.90
21104;DHT22;10710;53.398;-1.514;2024-01-30T06:29:49;8.80;99.90
21104;DHT22;10710;53.398;-1.514;2024-01-30T06:32:35;8.80;99.90
21104;DHT22;10710;53.398;-1.514;2024-01-30T06:35:20;8.90;99.90
21104;DHT22;10710;53.398;-1.514;2024-01-30T06:38:06;8.90;99.90
21104;DHT22;10710;53.398;-1.514;2024-01-30T06:40:50;8.80;99.90
21104;DHT22;10710;53.398;-1.514;2024-01-30T06:43:35;8.90;99.90
21104;DHT22;10710;53.398;-1.514;2024-01-30T06:46:19;8.70;99.90
21104;DHT22;10710;53.398;-1.514;2024-01-30T06:49:03;8.70;99.90
21104;DHT22;10710;53.398;-1.514;2024-01-30T06:51:48;8.70;99.90
21104;DHT22;10710;53.398;-1.514;2024-01-30T06:54:33;8.90;99.90
21104;DHT22;10710;53.398;-1.514;2024-01-30T06:57:17;8.90;99.90
21104;DHT22;10710;53.398;-1.514;2024-01-30T07:00:02;8.80;99.90
21104;DHT22;10710;53.398;-1.514;2024-01-30T07:02:47;8.80;99.90
21104;DHT22;10710;53.398;-1.514;2024-01-30T07:05:32;8.70;99.90
21104;DHT22;10710;53.398;-1.514;2024-01-30T07:08:16;8.70;99.90
21104;DHT22;10710;53.398;-1.514;2024-01-30T07:11:05;8.80;99.90
21104;DHT22;10710;53.398;-1.514;2024-01-30T07:13:51;8.80;99.90
21104;DHT22;10710;53.398;-1.514;2024-01-30T07:16:36;8.90;99.90
21104;DHT22;10710;53.398;-1.514;2024-01-30T07:19:20;8.90;99.90
21104;DHT22;10710;53.398;-1.514;2024-01-30T07:22:05;8.80;99.90
21104;DHT22;10710;53.398;-1.514;2024-01-30T07:24:49;8.80;99.90
21104;DHT22;10710;53.398;-1.514;2024-01-30T07:27:37;8.80;99.90
21104;DHT22;10710;53.398;-1.514;2024-01-30T07:30:22;8.80;99.90
21104;DHT22;10710;53.398;-1.514;2024-01-30T07:33:07;8.90;99.90
21104;DHT22;10710;53.398;-1.514;2024-01-30T07:35:53;8.90;99.90
21104;DHT22;10710;53.398;-1.514;2024-01-30T07:38:37;8.90;99.90
21104;DHT22;10710;53.398;-1.514;2024-01-30T07:41:21;8.80;99.90
21104;DHT22;10710;53.398;-1.514;2024-01-30T07:44:07;8.90;99.90
21104;DHT22;10710;53.398;-1.514;2024-01-30T07:46:52;8.90;99.90
21104;DHT22;10710;53.398;-1.514;2024-01-30T07:49:39;8.90;99.90
21104;DHT22;10710;53.398;-1.514;2024-01-30T07:52:24;8.70;99.90
21104;DHT22;10710;53.398;-1.514;2024-01-30T07:55:08;8.70;99.90
21104;DHT22;10710;53.398;-1.514;2024-01-30T07:57:52;8.80;99.90
21104;DHT22;10710;53.398;-1.514;2024-01-30T08:00:37;8.80;99.90
21104;DHT22;10710;53.398;-1.514;2024-01-30T08:03:22;8.80;99.90
21104;DHT22;10710;53.398;-1.514;2024-01-30T08:06:07;8.80;99.90
21104;DHT22;10710;53.398;-1.514;2024-01-30T08:08:51;8.80;99.90
21104;DHT22;10710;53.398;-1.514;2024-01-30T08:11:37;8.70;99.90
21104;DHT22;10710;53.398;-1.514;2024-01-30T08:14:22;8.50;99.90
21104;DHT22;10710;53.398;-1.514;2024-01-30T08:17:06;8.60;99.90
21104;DHT22;10710;53.398;-1.514;2024-01-30T08:19:51;8.70;99.90
21104;DHT22;10710;53.398;-1.514;2024-01-30T08:22:38;8.70;99.90
21104;DHT22;10710;53.398;-1.514;2024-01-30T08:25:24;8.70;99.90
21104;DHT22;10710;53.398;-1.514;2024-01-30T08:28:08;8.70;99.90
21104;DHT22;10710;53.398;-1.514;2024-01-30T08:30:53;8.70;99.90
21104;DHT22;10710;53.398;-1.514;2024-01-30T08:33:37;8.80;99.90
21104;DHT22;10710;53.398;-1.514;2024-01-30T08:36:21;8.90;99.90
21104;DHT22;10710;53.398;-1.514;2024-01-30T08:39:06;8.90;99.90
21104;DHT22;10710;53.398;-1.514;2024-01-30T08:41:51;9.00;99.90
21104;DHT22;10710;53.398;-1.514;2024-01-30T08:44:35;9.10;99.90
21104;DHT22;10710;53.398;-1.514;2024-01-30T08:47:20;9.20;99.90
21104;DHT22;10710;53.398;-1.514;2024-01-30T08:50:05;9.20;99.90
21104;DHT22;10710;53.398;-1.514;2024-01-30T08:52:50;9.20;99.90
21104;DHT22;10710;53.398;-1.514;2024-01-30T08:55:34;9.20;99.90
21104;DHT22;10710;53.398;-1.514;2024-01-30T08:58:19;9.30;99.90
21104;DHT22;10710;53.398;-1.514;2024-01-30T09:01:03;9.40;99.90
21104;DHT22;10710;53.398;-1.514;2024-01-30T09:03:49;9.50;99.90
21104;DHT22;10710;53.398;-1.514;2024-01-30T09:06:33;9.40;99.90
21104;DHT22;10710;53.398;-1.514;2024-01-30T09:09:17;9.30;99.90
21104;DHT22;10710;53.398;-1.514;2024-01-30T09:12:01;9.30;99.90
21104;DHT22;10710;53.398;-1.514;2024-01-30T09:14:50;9.20;99.90
21104;DHT22;10710;53.398;-1.514;2024-01-30T09:17:35;9.20;99.90
21104;DHT22;10710;53.398;-1.514;2024-01-30T09:20:19;9.40;99.90
21104;DHT22;10710;53.398;-1.514;2024-01-30T09:23:05;9.50;99.90
21104;DHT22;10710;53.398;-1.514;2024-01-30T09:25:49;9.50;99.90
21104;DHT22;10710;53.398;-1.514;2024-01-30T09:28:33;9.50;99.90
21104;DHT22;10710;53.398;-1.514;2024-01-30T09:31:18;9.40;99.90
21104;DHT22;10710;53.398;-1.514;2024-01-30T09:34:02;9.40;99.90
21104;DHT22;10710;53.398;-1.514;2024-01-30T09:36:47;9.40;99.90
21104;DHT22;10710;53.398;-1.514;2024-01-30T09:39:31;9.40;99.90
21104;DHT22;10710;53.398;-1.514;2024-01-30T09:45:06;9.50;99.90
21104;DHT22;10710;53.398;-1.514;2024-01-30T09:47:51;9.50;99.90
21104;DHT22;10710;53.398;-1.514;2024-01-30T09:50:35;9.50;99.90
21104;DHT22;10710;53.398;-1.514;2024-01-30T09:53:22;9.40;99.90
21104;DHT22;10710;53.398;-1.514;2024-01-30T09:56:07;9.40;99.90
21104;DHT22;10710;53.398;-1.514;2024-01-30T09:58:52;9.50;99.90
21104;DHT22;10710;53.398;-1.514;2024-01-30T10:01:36;9.50;99.90
21104;DHT22;10710;53.398;-1.514;2024-01-30T10:04:21;9.50;99.90
21104;DHT22;10710;53.398;-1.514;2024-01-30T10:07:06;9.40;99.90
21104;DHT22;10710;53.398;-1.514;2024-01-30T10:09:51;9.40;99.90
21104;DHT22;10710;53.398;-1.514;2024-01-30T10:12:39;9.60;99.90
21104;DHT22;10710;53.398;-1.514;2024-01-30T10:15:25;9.70;99.90
21104;DHT22;10710;53.398;-1.514;2024-01-30T10:18:11;9.70;99.90
21104;DHT22;10710;53.398;-1.514;2024-01-30T10:20:56;9.60;99.90
21104;DHT22;10710;53.398;-1.514;2024-01-30T10:23:41;9.70;99.90
21104;DHT22;10710;53.398;-1.514;2024-01-30T10:26:27;9.80;99.90
21104;DHT22;10710;53.398;-1.514;2024-01-30T10:29:13;9.70;99.90
21104;DHT22;10710;53.398;-1.514;2024-01-30T10:32:02;9.70;99.90
21104;DHT22;10710;53.398;-1.514;2024-01-30T10:34:47;9.80;99.90
21104;DHT22;10710;53.398;-1.514;2024-01-30T10:37:31;9.70;99.90
21104;DHT22;10710;53.398;-1.514;2024-01-30T10:40:16;9.40;99.90
21104;DHT22;10710;53.398;-1.514;2024-01-30T10:43:03;9.40;99.90
21104;DHT22;10710;53.398;-1.514;2024-01-30T10:45:49;9.40;99.90
21104;DHT22;10710;53.398;-1.514;2024-01-30T10:48:36;9.60;99.90
21104;DHT22;10710;53.398;-1.514;2024-01-30T10:51:27;9.50;99.90
21104;DHT22;10710;53.398;-1.514;2024-01-30T10:54:12;9.50;99.90
21104;DHT22;10710;53.398;-1.514;2024-01-30T10:57:00;9.30;99.90
21104;DHT22;10710;53.398;-1.514;2024-01-30T10:59:46;9.00;99.90
21104;DHT22;10710;53.398;-1.514;2024-01-30T11:02:32;9.20;99.90
21104;DHT22;10710;53.398;-1.514;2024-01-30T11:05:24;9.30;99.90
21104;DHT22;10710;53.398;-1.514;2024-01-30T11:08:22;9.20;99.90
21104;DHT22;10710;53.398;-1.514;2024-01-30T11:11:09;9.30;99.90
21104;DHT22;10710;53.398;-1.514;2024-01-30T11:13:53;9.60;99.90
21104;DHT22;10710;53.398;-1.514;2024-01-30T11:16:40;9.70;99.90
21104;DHT22;10710;53.398;-1.514;2024-01-30T11:19:30;9.80;99.90
21104;DHT22;10710;53.398;-1.514;2024-01-30T11:22:15;9.90;99.90
21104;DHT22;10710;53.398;-1.514;2024-01-30T11:24:59;9.70;99.90
21104;DHT22;10710;53.398;-1.514;2024-01-30T11:27:44;9.80;99.90
21104;DHT22;10710;53.398;-1.514;2024-01-30T11:30:32;9.80;99.90
21104;DHT22;10710;53.398;-1.514;2024-01-30T11:33:28;9.50;99.90
21104;DHT22;10710;53.398;-1.514;2024-01-30T11:36:15;9.20;99.90
21104;DHT22;10710;53.398;-1.514;2024-01-30T11:39:00;9.20;99.90
21104;DHT22;10710;53.398;-1.514;2024-01-30T11:41:46;9.20;99.90
21104;DHT22;10710;53.398;-1.514;2024-01-30T11:44:30;9.10;99.90
21104;DHT22;10710;53.398;-1.514;2024-01-30T11:47:14;9.10;99.90
21104;DHT22;10710;53.398;-1.514;2024-01-30T11:49:59;9.20;99.90
21104;DHT22;10710;53.398;-1.514;2024-01-30T11:52:44;9.20;99.90
21104;DHT22;10710;53.398;-1.514;2024-01-30T11:55:32;9.30;99.90
21104;DHT22;10710;53.398;-1.514;2024-01-30T11:58:16;9.30;99.90
21104;DHT22;10710;53.398;-1.514;2024-01-30T12:01:01;9.30;99.90
21104;DHT22;10710;53.398;-1.514;2024-01-30T12:03:50;9.50;99.90
21104;DHT22;10710;53.398;-1.514;2024-01-30T12:06:34;9.70;99.90
21104;DHT22;10710;53.398;-1.514;2024-01-30T12:09:19;9.90;99.90
21104;DHT22;10710;53.398;-1.514;2024-01-30T12:12:04;10.00;99.90
21104;DHT22;10710;53.398;-1.514;2024-01-30T12:14:49;10.20;99.90
21104;DHT22;10710;53.398;-1.514;2024-01-30T12:17:34;10.20;99.90
21104;DHT22;10710;53.398;-1.514;2024-01-30T12:20:19;10.30;99.90
21104;DHT22;10710;53.398;-1.514;2024-01-30T12:23:05;10.40;99.90
21104;DHT22;10710;53.398;-1.514;2024-01-30T12:25:50;10.30;99.90
21104;DHT22;10710;53.398;-1.514;2024-01-30T12:28:35;10.10;99.90
21104;DHT22;10710;53.398;-1.514;2024-01-30T12:31:28;10.00;99.90
21104;DHT22;10710;53.398;-1.514;2024-01-30T12:34:14;9.90;99.90
21104;DHT22;10710;53.398;-1.514;2024-01-30T12:37:01;9.90;99.90
21104;DHT22;10710;53.398;-1.514;2024-01-30T12:39:46;9.80;99.90
21104;DHT22;10710;53.398;-1.514;2024-01-30T12:42:31;9.80;99.90
21104;DHT22;10710;53.398;-1.514;2024-01-30T12:45:16;9.80;99.90
21104;DHT22;10710;53.398;-1.514;2024-01-30T12:48:00;9.60;99.90
21104;DHT22;10710;53.398;-1.514;2024-01-30T12:50:45;9.40;99.90
21104;DHT22;10710;53.398;-1.514;2024-01-30T12:53:29;9.20;99.90
21104;DHT22;10710;53.398;-1.514;2024-01-30T12:56:13;9.20;99.90
21104;DHT22;10710;53.398;-1.514;2024-01-30T12:58:59;9.30;99.90
21104;DHT22;10710;53.398;-1.514;2024-01-30T13:01:43;9.30;99.90
21104;DHT22;10710;53.398;-1.514;2024-01-30T13:04:28;9.40;99.90
21104;DHT22;10710;53.398;-1.514;2024-01-30T13:07:13;9.50;99.90
21104;DHT22;10710;53.398;-1.514;2024-01-30T13:09:57;9.60;99.90
21104;DHT22;10710;53.398;-1.514;2024-01-30T13:12:48;9.70;99.90
21104;DHT22;10710;53.398;-1.514;2024-01-30T13:15:32;9.60;99.90
21104;DHT22;10710;53.398;-1.514;2024-01-30T13:18:17;9.60;99.90
21104;DHT22;10710;53.398;-1.514;2024-01-30T13:21:02;9.40;99.90
21104;DHT22;10710;53.398;-1.514;2024-01-30T13:23:47;9.10;99.90
21104;DHT22;10710;53.398;-1.514;2024-01-30T13:26:32;9.10;99.90
21104;DHT22;10710;53.398;-1.514;2024-01-30T13:29:17;9.10;99.90
21104;DHT22;10710;53.398;-1.514;2024-01-30T13:32:02;9.20;99.90
21104;DHT22;10710;53.398;-1.514;2024-01-30T13:34:47;9.00;99.90
21104;DHT22;10710;53.398;-1.514;2024-01-30T13:37:32;8.90;99.90
21104;DHT22;10710;53.398;-1.514;2024-01-30T13:40:16;9.00;99.90
21104;DHT22;10710;53.398;-1.514;2024-01-30T13:43:01;9.10;99.90
21104;DHT22;10710;53.398;-1.514;2024-01-30T13:45:46;9.10;99.90
21104;DHT22;10710;53.398;-1.514;2024-01-30T13:48:31;9.10;99.90
21104;DHT22;10710;53.398;-1.514;2024-01-30T13:51:15;9.10;99.90
21104;DHT22;10710;53.398;-1.514;2024-01-30T13:54:01;9.30;99.90
21104;DHT22;10710;53.398;-1.514;2024-01-30T13:56:46;9.30;99.90
21104;DHT22;10710;53.398;-1.514;2024-01-30T13:59:30;9.40;99.90
21104;DHT22;10710;53.398;-1.514;2024-01-30T14:02:15;9.40;99.90
21104;DHT22;10710;53.398;-1.514;2024-01-30T14:04:59;9.20;99.90
21104;DHT22;10710;53.398;-1.514;2024-01-30T14:07:43;9.30;99.90
21104;DHT22;10710;53.398;-1.514;2024-01-30T14:10:28;9.20;99.90
21104;DHT22;10710;53.398;-1.514;2024-01-30T14:13:12;8.90;99.90
21104;DHT22;10710;53.398;-1.514;2024-01-30T14:15:57;8.90;99.90
21104;DHT22;10710;53.398;-1.514;2024-01-30T14:18:41;9.00;99.90
21104;DHT22;10710;53.398;-1.514;2024-01-30T14:21:26;9.10;99.90
21104;DHT22;10710;53.398;-1.514;2024-01-30T14:24:10;9.20;99.90
21104;DHT22;10710;53.398;-1.514;2024-01-30T14:26:55;9.20;99.90
21104;DHT22;10710;53.398;-1.514;2024-01-30T14:29:39;9.30;99.90
21104;DHT22;10710;53.398;-1.514;2024-01-30T14:32:24;9.60;99.90
21104;DHT22;10710;53.398;-1.514;2024-01-30T14:35:09;9.70;99.90
21104;DHT22;10710;53.398;-1.514;2024-01-30T14:37:54;9.90;99.90
21104;DHT22;10710;53.398;-1.514;2024-01-30T14:40:39;9.90;99.90
21104;DHT22;10710;53.398;-1.514;2024-01-30T14:43:24;9.80;99.90
21104;DHT22;10710;53.398;-1.514;2024-01-30T14:46:08;10.20;99.90
21104;DHT22;10710;53.398;-1.514;2024-01-30T14:48:53;10.10;99.90
21104;DHT22;10710;53.398;-1.514;2024-01-30T14:51:37;10.20;99.90
21104;DHT22;10710;53.398;-1.514;2024-01-30T14:54:22;10.30;99.90
21104;DHT22;10710;53.398;-1.514;2024-01-30T14:57:06;10.60;99.90
21104;DHT22;10710;53.398;-1.514;2024-01-30T14:59:50;10.90;99.90
21104;DHT22;10710;53.398;-1.514;2024-01-30T15:02:35;11.10;99.90
21104;DHT22;10710;53.398;-1.514;2024-01-30T15:05:19;11.00;99.90
21104;DHT22;10710;53.398;-1.514;2024-01-30T15:08:04;10.80;99.90
21104;DHT22;10710;53.398;-1.514;2024-01-30T15:10:48;10.60;99.90
21104;DHT22;10710;53.398;-1.514;2024-01-30T15:13:33;10.70;99.90
21104;DHT22;10710;53.398;-1.514;2024-01-30T15:16:18;10.90;99.90
21104;DHT22;10710;53.398;-1.514;2024-01-30T15:19:03;10.90;99.90
21104;DHT22;10710;53.398;-1.514;2024-01-30T15:21:49;10.60;99.90
21104;DHT22;10710;53.398;-1.514;2024-01-30T15:24:33;10.40;99.90
21104;DHT22;10710;53.398;-1.514;2024-01-30T15:27:17;10.10;99.90
21104;DHT22;10710;53.398;-1.514;2024-01-30T15:30:03;9.90;99.90
21104;DHT22;10710;53.398;-1.514;2024-01-30T15:32:48;9.70;99.90
21104;DHT22;10710;53.398;-1.514;2024-01-30T15:35:33;9.60;99.90
21104;DHT22;10710;53.398;-1.514;2024-01-30T15:38:19;9.40;99.90
21104;DHT22;10710;53.398;-1.514;2024-01-30T15:41:05;9.30;99.90
21104;DHT22;10710;53.398;-1.514;2024-01-30T15:43:49;9.20;99.90
21104;DHT22;10710;53.398;-1.514;2024-01-30T15:46:35;9.00;99.90
21104;DHT22;10710;53.398;-1.514;2024-01-30T15:49:20;9.00;99.90
21104;DHT22;10710;53.398;-1.514;2024-01-30T15:52:05;8.80;99.90
21104;DHT22;10710;53.398;-1.514;2024-01-30T15:54:49;8.70;99.90
21104;DHT22;10710;53.398;-1.514;2024-01-30T15:57:33;8.70;99.90
21104;DHT22;10710;53.398;-1.514;2024-01-30T16:00:18;8.60;99.90
21104;DHT22;10710;53.398;-1.514;2024-01-30T16:03:04;8.60;99.90
21104;DHT22;10710;53.398;-1.514;2024-01-30T16:05:49;8.60;99.90
21104;DHT22;10710;53.398;-1.514;2024-01-30T16:08:33;8.50;99.90
21104;DHT22;10710;53.398;-1.514;2024-01-30T16:11:17;8.40;99.90
21104;DHT22;10710;53.398;-1.514;2024-01-30T16:14:02;8.40;99.90
21104;DHT22;10710;53.398;-1.514;2024-01-30T16:16:47;8.40;99.90
21104;DHT22;10710;53.398;-1.514;2024-01-30T16:19:31;8.30;99.90
21104;DHT22;10710;53.398;-1.514;2024-01-30T16:22:17;8.20;99.90
21104;DHT22;10710;53.398;-1.514;2024-01-30T16:25:05;8.20;99.90
21104;DHT22;10710;53.398;-1.514;2024-01-30T16:27:49;8.20;99.90
21104;DHT22;10710;53.398;-1.514;2024-01-30T16:30:34;8.10;99.90
21104;DHT22;10710;53.398;-1.514;2024-01-30T16:33:18;8.10;99.90
21104;DHT22;10710;53.398;-1.514;2024-01-30T16:36:03;8.00;99.90
21104;DHT22;10710;53.398;-1.514;2024-01-30T16:38:47;8.00;99.90
21104;DHT22;10710;53.398;-1.514;2024-01-30T16:41:32;7.90;99.90
21104;DHT22;10710;53.398;-1.514;2024-01-30T16:44:17;7.70;99.90
21104;DHT22;10710;53.398;-1.514;2024-01-30T16:47:01;7.70;99.90
21104;DHT22;10710;53.398;-1.514;2024-01-30T16:49:46;7.70;99.90
21104;DHT22;10710;53.398;-1.514;2024-01-30T16:52:31;7.60;99.90
21104;DHT22;10710;53.398;-1.514;2024-01-30T16:55:15;7.60;99.90
21104;DHT22;10710;53.398;-1.514;2024-01-30T16:58:00;7.50;99.90
21104;DHT22;10710;53.398;-1.514;2024-01-30T17:00:44;7.50;99.90
21104;DHT22;10710;53.398;-1.514;2024-01-30T17:03:28;7.50;99.90
21104;DHT22;10710;53.398;-1.514;2024-01-30T17:06:13;7.50;99.90
21104;DHT22;10710;53.398;-1.514;2024-01-30T17:08:57;7.40;99.90
21104;DHT22;10710;53.398;-1.514;2024-01-30T17:11:41;7.40;99.90
21104;DHT22;10710;53.398;-1.514;2024-01-30T17:14:26;7.30;99.90
21104;DHT22;10710;53.398;-1.514;2024-01-30T17:17:12;7.10;99.90